Cove Creek, Virginia
Current Conditions -  °F | °C
As of 7:52 PM on Saturday 22 Nov 2014 (Local Time) from KBLF Reporting Station
Clear Clear  
Wind Chill: 47°   Ceiling: Unl
Heat Index: 47°   Visibility: 10mi
Dew Point: 15°   Wind: 3mph
Humidity: 28%   Direction: 150°SSE
Pressure: 30.25"   Gusts: NA
Location:  37.1593°N, 81.1986°W
Report Text: KBLF 230052Z AUTO 15003KT 10SM CLR 08/M09 A3025 RMK AO2 SLP254 T00831094
Loading
Personal Weather Stations






























Interactive Weather Map New forecast layout! Learn more

10-Day Weather Forecast

Advertisements
Track Severe Weather on mobile